• Join FlightAware (Why Join?)
  • Login
  • US Flag 
05:24PM EST


 

Airport Tracker/Info


-or-


 

Live Flight TrackerFlight Track Log ✈ N589H ✈ 01-Mar-2014 ✈ KTEB - KPIE

Flight Track Log - Related Links

Times and Time Zones

All times are in EST time to prevent confusion due to time zone crossing. See the N589H flight status page for this flight to view local times or setup timezone preferences in your user account.

Time Position Orientation Groundspeed Altitude Reporting Facility
EST Latitude Longitude Course Direction KTS MPH feet Rate Location/Type
06:37PM 40.8333 -74.1000 234° Southwest 168 193 1,400  Level New York TRACON
06:39PM 40.8153 -74.2503 261° West 172 198 4,300 1,493 Climbing New York Center
06:40PM 40.8136 -74.3183 268° West 172 198 6,400 2,146 Climbing New York Center
06:41PM 40.8028 -74.3797 257° West 177 204 8,700 1,935 Climbing New York Center
06:42PM 40.4467 -75.1827 234° Southwest  Level FlightAware Approximate
06:42PM 40.7764 -74.4464 242° Southwest 189 217 10,400  Level New York Center
06:43PM 40.7517 -74.5122 244° Southwest 192 221 12,300 1,694 Climbing New York Center
06:44PM 40.7267 -74.5817 245° Southwest 200 230 13,900 1,548 Climbing New York Center
06:45PM 40.7003 -74.6539 244° Southwest 216 249 15,500 1,452 Climbing New York Center
06:46PM 40.6722 -74.7275 243° Southwest 227 261 16,900 1,258 Climbing New York Center
06:47PM 40.6414 -74.8081 243° Southwest 229 264 18,100 1,065 Climbing New York Center
06:48PM 40.6156 -74.8806 245° Southwest 229 264 19,100 1,016 Climbing New York Center
06:49PM 40.5858 -74.9589 243° Southwest 239 275 20,200 1,016 Climbing New York Center
06:50PM 40.5544 -75.0397 243° Southwest 246 283 21,200 1,016 Climbing New York Center
06:51PM 40.5061 -75.1125 229° Southwest 263 303 22,300 1,258 Climbing New York Center
06:52PM 40.4492 -75.2019 230° Southwest 273 314 23,800 1,355 Climbing New York Center
06:53PM 40.3950 -75.2850 229° Southwest 282 325 25,100 1,113 Climbing New York Center
06:54PM 40.3481 -75.3608 231° Southwest 273 314 26,100 1,122 Climbing New York Center
06:55PM 40.2956 -75.4447 231° Southwest 278 320 27,400 1,073 Climbing New York Center
06:56PM 40.2450 -75.5217 229° Southwest 278 320 28,300 823 Climbing New York Center
06:57PM 40.1889 -75.5753 216° Southwest 306 352 29,100 890 Climbing New York Center
06:59PM 40.0778 -75.6681 213° Southwest 300 345 30,600 968 Climbing Washington Center
07:00PM 40.0347 -75.7028 212° Southwest 299 344 31,100 903 Climbing New York Center
07:01PM 39.9639 -75.7625 213° Southwest 302 348 32,000 435 Climbing New York Center
07:02PM 39.8897 -75.8239 212° Southwest 314 361 32,000  Level New York Center
07:03PM 39.7936 -75.9039 213° Southwest 340 391 32,000  Level New York Center
07:04PM 39.7089 -75.9714 212° Southwest 355 409 32,000  Level New York Center
07:05PM 39.6233 -76.0419 212° Southwest 360 414 32,000  Level New York Center
07:05PM 39.5900 -76.0714 214° Southwest 363 418 32,000  Level Washington Center
07:06PM 39.5050 -76.1406 212° Southwest 362 417 32,000  Level Washington Center
07:07PM 39.4033 -76.2256 213° Southwest 363 418 32,000  Level Washington Center
07:08PM 39.3342 -76.3064 222° Southwest 359 413 32,000  Level Washington Center
07:09PM 39.2608 -76.3928 222° Southwest 357 411 32,000  Level Washington Center
07:10PM 39.1800 -76.4697 216° Southwest 357 411 32,000  Level Washington Center
07:11PM 39.0728 -76.5503 210° Southwest 367 422 32,000  Level Washington Center
07:12PM 38.9847 -76.6203 212° Southwest 368 423 32,000  Level Washington Center
07:14PM 38.8961 -76.6900 211° Southwest 369 425 32,000  Level Washington Center
07:15PM 38.8086 -76.7594 212° Southwest 369 425 32,000  Level Washington Center
07:16PM 38.7200 -76.8281 211° Southwest 369 425 32,000  Level Washington Center
07:17PM 38.6314 -76.8981 212° Southwest 371 427 32,000  Level Washington Center
07:18PM 38.5433 -76.9686 212° Southwest 371 427 32,000  Level Washington Center
07:19PM 38.4367 -77.0506 211° Southwest 372 428 32,000  Level Washington Center
07:20PM 38.3475 -77.1189 211° Southwest 371 427 32,000  Level Washington Center
07:21PM 38.2586 -77.1883 212° Southwest 372 428 32,000  Level Washington Center
07:22PM 38.1694 -77.2558 211° Southwest 372 428 32,000  Level Washington Center
07:23PM 38.0800 -77.3253 211° Southwest 373 429 32,000  Level Washington Center
07:24PM 37.9786 -77.4031 211° Southwest 373 429 32,000  Level Washington Center
07:25PM 37.8894 -77.4711 211° Southwest 373 429 32,000  Level Washington Center
07:26PM 37.8006 -77.5397 211° Southwest 376 433 32,000  Level Washington Center
07:27PM 37.7122 -77.6069 211° Southwest 376 433 32,000  Level Washington Center
07:28PM 37.6033 -77.6883 211° Southwest 379 436 32,000  Level Washington Center
07:29PM 37.5144 -77.7561 211° Southwest 380 437 32,000  Level Washington Center
07:30PM 37.4244 -77.8244 211° Southwest 380 437 32,000  Level Washington Center
07:31PM 37.3342 -77.8919 211° Southwest 381 438 32,000  Level Washington Center
07:32PM 37.2444 -77.9592 211° Southwest 380 437 32,000  Level Washington Center
07:33PM 37.1358 -78.0417 211° Southwest 381 438 32,000  Level Washington Center
07:34PM 37.0447 -78.1081 210° Southwest 381 438 32,000  Level Washington Center
07:35PM 36.9517 -78.1781 211° Southwest 386 444 32,000  Level Washington Center
07:36PM 36.8611 -78.2428 210° Southwest 385 443 32,000  Level Washington Center
07:37PM 36.7700 -78.3111 211° Southwest 385 443 32,000  Level Washington Center
07:38PM 36.6711 -78.3853 211° Southwest 390 449 32,000  Level Washington Center
07:39PM 36.5789 -78.4533 211° Southwest 389 448 32,000  Level Washington Center
07:40PM 36.4686 -78.5356 211° Southwest 385 443 32,000  Level Washington Center
07:41PM 36.3758 -78.6019 210° Southwest 384 442 32,000  Level Washington Center
07:42PM 36.2842 -78.6689 210° Southwest 384 442 32,000  Level Washington Center
07:44PM 36.1922 -78.7356 210° Southwest 384 442 32,000  Level Washington Center
07:45PM 36.1011 -78.8033 211° Southwest 384 442 32,000  Level Washington Center
07:46PM 36.0092 -78.8681 210° Southwest 383 441 32,000  Level Washington Center
07:47PM 35.8981 -78.9475 210° Southwest 383 441 32,000  Level Washington Center
07:48PM 35.8064 -79.0125 210° Southwest 384 442 32,000  Level Washington Center
07:49PM 35.7144 -79.0775 210° Southwest 383 441 32,000  Level Washington Center
07:50PM 35.6222 -79.1447 211° Southwest 386 444 32,000  Level Washington Center
07:51PM 35.5178 -79.2189 210° Southwest 386 444 32,000  Level Washington Center
07:52PM 35.4186 -79.2894 210° Southwest 385 443 32,000  Level Washington Center
07:53PM 35.3261 -79.3547 210° Southwest 386 444 32,000  Level Washington Center
07:54PM 35.2353 -79.4189 210° Southwest 385 443 32,000  Level Washington Center
07:55PM 35.1428 -79.4842 210° Southwest 385 443 32,000  Level Washington Center
07:56PM 35.0508 -79.5489 210° Southwest 385 443 32,000  Level Washington Center
07:57PM 34.9572 -79.6136 210° Southwest 385 443 32,000  Level Washington Center
07:58PM 34.8478 -79.6911 210° Southwest 383 441 32,000  Level Washington Center
07:59PM 34.7553 -79.7558 210° Southwest 384 442 32,000  Level Washington Center
08:00PM 34.6619 -79.8200 209° Southwest 385 443 32,000  Level Washington Center
08:01PM 34.5500 -79.9003 211° Southwest 387 445 32,000  Level Jacksonville Center
08:02PM 34.4700 -79.9561 210° Southwest 387 445 32,000  Level Jacksonville Center
08:03PM 34.3756 -80.0222 210° Southwest 387 445 32,000  Level Jacksonville Center
08:04PM 34.2850 -80.0853 210° Southwest 387 445 32,000  Level Jacksonville Center
08:05PM 34.1947 -80.1486 210° Southwest 387 445 32,000  Level Jacksonville Center
08:06PM 34.1042 -80.2067 208° Southwest 387 445 32,000  Level Jacksonville Center
08:07PM 34.0158 -80.2694 211° Southwest 379 436 32,000  Level Jacksonville Center
08:08PM 33.9294 -80.3297 210° Southwest 374 430 32,000  Level Jacksonville Center
08:09PM 33.8386 -80.3872 208° Southwest 369 425 32,000  Level Jacksonville Center
08:10PM 33.7522 -80.4472 210° Southwest 369 425 32,000  Level Jacksonville Center
08:11PM 33.6533 -80.5122 209° Southwest 369 425 32,000  Level Jacksonville Center
08:12PM 33.5667 -80.5719 210° Southwest 369 425 32,000  Level Jacksonville Center
08:13PM 33.4781 -80.6314 209° Southwest 369 425 32,000  Level Jacksonville Center
08:14PM 33.3894 -80.6911 209° Southwest 369 425 32,000  Level Jacksonville Center
08:15PM 33.3006 -80.7478 208° Southwest 369 425 32,000  Level Jacksonville Center
08:16PM 33.2139 -80.8069 210° Southwest 369 425 32,000  Level Jacksonville Center
08:17PM 33.1253 -80.8661 209° Southwest 369 425 32,000  Level Jacksonville Center
08:18PM 33.0386 -80.9275 211° Southwest 369 425 32,000  Level Jacksonville Center
08:19PM 32.9497 -80.9839 208° Southwest 369 425 32,000  Level Jacksonville Center
08:20PM 32.8628 -81.0403 209° Southwest 369 425 32,000  Level Jacksonville Center
08:21PM 32.7739 -81.0989 209° Southwest 369 425 32,000  Level Jacksonville Center
08:22PM 32.6869 -81.1572 209° Southwest 369 425 32,000  Level Jacksonville Center
08:23PM 32.6106 -81.2081 209° Southwest 357 411 32,000  Level Jacksonville Center
08:24PM 32.5236 -81.2639 208° Southwest 357 411 32,000  Level Jacksonville Center
08:25PM 32.4283 -81.3272 209° Southwest 357 411 32,000  Level Jacksonville Center
08:26PM 32.3433 -81.3828 209° Southwest 357 411 32,000  Level Jacksonville Center
08:27PM 32.2564 -81.4408 209° Southwest 352 405 32,000  Level Jacksonville Center
08:28PM 32.1692 -81.4961 208° Southwest 357 411 32,000  Level Jacksonville Center
08:29PM 32.0842 -81.5317 200° South 357 411 32,000  Level Jacksonville Center
08:30PM 31.9758 -81.5650 195° South 370 426 32,000  Level Jacksonville Center
08:31PM 31.8822 -81.5958 196° South 376 433 32,000  Level Jacksonville Center
08:32PM 31.7742 -81.6342 197° South 381 438 32,000  Level Jacksonville Center
08:33PM 31.6742 -81.6694 197° South 386 444 32,000  Level Jacksonville Center
08:34PM 31.5847 -81.6975 195° South 378 435 32,000  Level Jacksonville Center
08:35PM 31.4744 -81.7356 196° South 378 435 32,000  Level Jacksonville Center
08:36PM 31.3722 -81.7683 195° South 378 435 32,000  Level Jacksonville Center
08:37PM 31.2786 -81.8011 197° South 378 435 32,000  Level Jacksonville Center
08:38PM 31.1808 -81.8339 196° South 378 435 32,000  Level Jacksonville Center
08:39PM 31.0789 -81.8689 196° South 378 435 32,000  Level Jacksonville Center
08:40PM 30.9808 -81.9014 196° South 378 435 32,000  Level Jacksonville Center
08:41PM 30.8808 -81.9364 197° South 378 435 32,000  Level Jacksonville Center
08:42PM 30.7811 -81.9689 196° South 378 435 32,000  Level Jacksonville Center
08:43PM 30.6831 -82.0011 196° South 378 435 32,000  Level Jacksonville Center
08:44PM 30.5831 -82.0336 196° South 378 435 32,000  Level Jacksonville Center
08:45PM 30.4725 -82.0658 194° South 373 429 32,000  Level Jacksonville Center
08:46PM 30.3747 -82.0956 195° South 378 435 32,000 -100 Level Jacksonville Center
08:47PM 30.2767 -82.1325 198° South 378 435 31,800 -550 Descending Jacksonville Center
08:48PM 30.1706 -82.1550 190° South 378 435 30,900 -857 Descending Jacksonville Center
08:49PM 30.0600 -82.1797 191° South 396 456 30,100 -908 Descending Jacksonville Center
08:50PM 29.9494 -82.2117 194° South 402 463 29,100 -1,150 Descending Jacksonville Center
08:51PM 29.8389 -82.2364 191° South 408 470 27,800 -1,250 Descending Jacksonville Center
08:52PM 29.7264 -82.2589 190° South 413 475 26,600 -1,289 Descending Jacksonville Center
08:53PM 29.6200 -82.2881 193° South 413 475 25,200 -1,750 Descending Jacksonville Center
08:54PM 29.5114 -82.3128 191° South 413 475 23,100 -2,269 Descending Jacksonville Center
08:55PM 29.4053 -82.3394 192° South 408 470 20,700 -2,350 Descending Jacksonville Center
08:56PM 29.3050 -82.3617 191° South 396 456 18,400 -2,150 Descending Jacksonville Center
08:57PM 29.2111 -82.3833 191° South 370 426 16,400 -2,150 Descending Jacksonville Center
08:58PM 29.1194 -82.4053 192° South 354 407 14,100 -2,200 Descending Jacksonville Center
08:59PM 29.0319 -82.4272 192° South 335 386 12,000 -1,537 Descending Jacksonville Center
09:00PM 28.9442 -82.4464 191° South 329 379 11,000 -500 Descending Jacksonville Center
09:01PM 28.8608 -82.4658 192° South 324 373 11,000 -36 Level Jacksonville Center
09:03PM 28.7167 -82.5000 192° South 312 359 10,900 -36 Descending Tampa TRACON
09:04PM 28.6167 -82.5167 188° South 312 359 10,900 -100 Level Tampa TRACON
09:05PM 28.5333 -82.5500 199° South 316 364 10,700 -550 Descending Tampa TRACON
09:06PM 28.4667 -82.5833 204° Southwest 312 359 9,800 -850 Descending Tampa TRACON
09:07PM 28.3833 -82.6333 208° Southwest 296 341 9,000 -900 Descending Tampa TRACON
09:08PM 28.3000 -82.6667 199° South 289 333 8,000 -1,100 Descending Tampa TRACON
09:09PM 28.2333 -82.7000 204° Southwest 278 320 6,800 -1,150 Descending Tampa TRACON
09:10PM 28.1667 -82.7167 192° South 271 312 5,700 -1,150 Descending Tampa TRACON
09:11PM 28.0833 -82.7333 190° South 260 299 4,500 -850 Descending Tampa TRACON
09:12PM 28.0167 -82.7333 180° South 242 278 4,000 -950 Descending Tampa TRACON
09:13PM 27.9667 -82.7500 196° South 215 247 2,600 -750 Descending Tampa TRACON
09:14PM 27.9167 -82.7500 180° South 165 190 2,500 -347 Descending Tampa TRACON
09:15PM 27.8667 -82.7500 180° South 152 175 1,900 -783 Descending Tampa TRACON
09:16PM 27.8667 -82.7000 90° East 130 150 1,000 -842 Descending Tampa TRACON
09:17PM 27.8833 -82.6833 41° Northeast 128 147 300 -700 Descending Tampa TRACON